createdAt,value
2022-12-16T00:00:03.676Z,0.02
2022-12-16T00:01:03.515Z,0.03
2022-12-16T00:02:04.289Z,0.03
2022-12-16T00:03:04.044Z,0.02
2022-12-16T00:04:04.237Z,0.04
2022-12-16T00:05:03.743Z,0.02
2022-12-16T00:06:04.088Z,0.02
2022-12-16T00:07:03.415Z,0.03
2022-12-16T00:08:03.602Z,0.02
2022-12-16T00:09:03.235Z,0.02
2022-12-16T00:10:03.826Z,0.02
2022-12-16T00:11:03.172Z,0.03
2022-12-16T00:12:03.531Z,0.02
2022-12-16T00:13:08.894Z,0.02
2022-12-16T00:14:03.847Z,0.03
2022-12-16T00:15:03.794Z,0.03
2022-12-16T00:16:03.789Z,0.02
2022-12-16T00:17:03.743Z,0.02
2022-12-16T00:18:03.653Z,0.03
2022-12-16T00:19:03.697Z,0.03
2022-12-16T00:20:03.596Z,0.03
2022-12-16T00:21:03.576Z,0.02
2022-12-16T00:22:03.186Z,0.03
2022-12-16T00:23:03.387Z,0.03
2022-12-16T00:24:03.274Z,0.03
2022-12-16T00:25:03.179Z,0.03
2022-12-16T00:26:03.480Z,0.02
2022-12-16T00:27:02.673Z,0.03
2022-12-16T00:28:03.084Z,0.03
2022-12-16T00:29:03.046Z,0.03
2022-12-16T00:30:02.497Z,0.03
2022-12-16T00:31:03.167Z,0.03
2022-12-16T00:32:02.978Z,0.02
2022-12-16T00:33:02.844Z,0.03
2022-12-16T00:34:03.311Z,0.03
2022-12-16T00:35:02.812Z,0.03
2022-12-16T00:36:02.851Z,0.04
2022-12-16T00:37:03.439Z,0.03
2022-12-16T00:38:03.493Z,0.03
2022-12-16T00:39:03.304Z,0.03
2022-12-16T00:40:02.846Z,0.03
2022-12-16T00:41:03.224Z,0.02
2022-12-16T00:42:03.348Z,0.03
2022-12-16T00:43:03.465Z,0.04
2022-12-16T00:44:03.760Z,0.03
2022-12-16T00:45:03.199Z,0.03
2022-12-16T00:46:03.468Z,0.03
2022-12-16T00:47:03.087Z,0.02
2022-12-16T00:48:02.994Z,0.03
2022-12-16T00:49:02.826Z,0.03
2022-12-16T00:50:02.905Z,0.03
2022-12-16T00:51:03.175Z,0.03
2022-12-16T00:52:03.412Z,0.03
2022-12-16T00:53:03.251Z,0.03
2022-12-16T00:54:03.571Z,0.03
2022-12-16T00:55:03.070Z,0.03
2022-12-16T00:56:03.661Z,0.02
2022-12-16T00:57:02.762Z,0.03
2022-12-16T00:58:02.921Z,0.03
2022-12-16T00:59:02.784Z,0.02
2022-12-16T01:00:02.864Z,0.03
2022-12-16T01:01:02.486Z,0.04
2022-12-16T01:02:03.761Z,0.03
2022-12-16T01:03:03.759Z,0.02
2022-12-16T01:04:03.404Z,0.02
2022-12-16T01:05:03.462Z,0.03
2022-12-16T01:06:03.987Z,0.03
2022-12-16T01:07:04.438Z,0.04
2022-12-16T01:08:03.996Z,0.02
2022-12-16T01:09:04.324Z,0.02
2022-12-16T01:10:04.369Z,0.02
2022-12-16T01:11:04.415Z,0.03
2022-12-16T01:12:03.462Z,0.03
2022-12-16T01:13:03.314Z,0.03
2022-12-16T01:14:03.708Z,0.02
2022-12-16T01:15:03.530Z,0.04
2022-12-16T01:16:03.791Z,0.03
2022-12-16T01:17:04.130Z,0.03
2022-12-16T01:18:04.057Z,0.03
2022-12-16T01:19:04.049Z,0.03
2022-12-16T01:20:03.845Z,0.02
2022-12-16T01:21:04.001Z,0.03
2022-12-16T01:22:04.169Z,0.03
2022-12-16T01:23:04.242Z,0.03
2022-12-16T01:24:04.388Z,0.03
2022-12-16T01:25:04.037Z,0.03
2022-12-16T01:26:04.478Z,0.02
2022-12-16T01:27:03.508Z,0.02
2022-12-16T01:28:03.363Z,0.04
2022-12-16T01:29:03.443Z,0.02
2022-12-16T01:30:03.654Z,0.03
2022-12-16T01:31:03.788Z,0.03
2022-12-16T01:32:04.189Z,0.03
2022-12-16T01:33:03.664Z,0.03
2022-12-16T01:34:04.004Z,0.04
2022-12-16T01:35:03.736Z,0.03
2022-12-16T01:36:04.210Z,0.03
2022-12-16T01:37:03.466Z,0.02
2022-12-16T01:38:03.592Z,0.03
2022-12-16T01:39:03.446Z,0.02
2022-12-16T01:40:03.347Z,0.03
2022-12-16T01:41:02.966Z,0.03
2022-12-16T01:42:04.172Z,0.02
2022-12-16T01:43:04.309Z,0.03
2022-12-16T01:44:03.880Z,0.02
2022-12-16T01:45:03.551Z,0.02
2022-12-16T01:46:03.740Z,0.02
2022-12-16T01:47:03.004Z,0.02
2022-12-16T01:48:03.251Z,0.03
2022-12-16T01:49:03.261Z,0.03
2022-12-16T01:50:03.484Z,0.03
2022-12-16T01:51:03.172Z,0.03
2022-12-16T01:52:03.401Z,0.04
2022-12-16T01:53:02.900Z,0.02
2022-12-16T01:56:03.422Z,0.04
2022-12-16T01:57:03.443Z,0.03
2022-12-16T01:58:03.200Z,0.02
2022-12-16T01:59:03.408Z,0.03
2022-12-16T02:00:02.940Z,0.03
2022-12-16T02:01:02.885Z,0.03
2022-12-16T02:02:04.059Z,0.02
2022-12-16T02:03:03.619Z,0.03
2022-12-16T02:04:03.825Z,0.02
2022-12-16T02:05:03.371Z,0.04
2022-12-16T02:06:03.419Z,0.02
2022-12-16T02:07:03.726Z,0.03
2022-12-16T02:08:03.915Z,0.03
2022-12-16T02:09:03.575Z,0.03
2022-12-16T02:10:03.670Z,0.02
2022-12-16T02:14:03.988Z,0.03
2022-12-16T02:15:04.180Z,0.03
2022-12-16T02:16:04.146Z,0.03
2022-12-16T02:17:03.515Z,0.03
2022-12-16T02:18:03.859Z,0.03
2022-12-16T02:19:03.267Z,0.04
2022-12-16T02:20:04.242Z,0.03
2022-12-16T02:21:03.906Z,0.03
2022-12-16T02:22:04.276Z,0.03
2022-12-16T02:23:03.820Z,0.03
2022-12-16T02:24:04.245Z,0.03
2022-12-16T02:25:04.235Z,0.03
2022-12-16T02:26:04.131Z,0.02
2022-12-16T02:29:03.480Z,0.02
2022-12-16T02:30:03.369Z,0.03
2022-12-16T02:31:03.400Z,0.03
2022-12-16T02:32:03.440Z,0.02
2022-12-16T02:33:03.442Z,0.03
2022-12-16T02:34:02.966Z,0.03
2022-12-16T02:35:03.161Z,0.03
2022-12-16T02:36:02.895Z,0.03
2022-12-16T02:37:03.791Z,0.02
2022-12-16T02:38:03.395Z,0.03
2022-12-16T02:39:03.806Z,0.02
2022-12-16T02:40:03.696Z,0.02
2022-12-16T02:41:03.217Z,0.03
2022-12-16T02:42:03.033Z,0.04
2022-12-16T02:43:02.590Z,0.02
2022-12-16T02:46:02.663Z,0.03
2022-12-16T02:47:02.932Z,0.03
2022-12-16T02:48:03.065Z,0.02
2022-12-16T02:49:03.385Z,0.03
2022-12-16T02:50:02.918Z,0.03
2022-12-16T02:51:03.046Z,0.04
2022-12-16T02:52:03.113Z,0.03
2022-12-16T02:53:03.059Z,0.04
2022-12-16T02:54:03.091Z,0.03
2022-12-16T02:55:03.238Z,0.02
2022-12-16T02:56:03.414Z,0.03
2022-12-16T02:57:02.962Z,0.03
2022-12-16T02:58:02.989Z,0.04
2022-12-16T02:59:02.564Z,0.03
2022-12-16T03:00:02.480Z,0.03
2022-12-16T03:03:04.703Z,0.04
2022-12-16T03:04:04.791Z,0.03
2022-12-16T03:05:04.959Z,0.03
2022-12-16T03:06:05.010Z,0.02
2022-12-16T03:07:04.587Z,0.04
2022-12-16T03:08:04.707Z,0.03
2022-12-16T03:09:04.825Z,0.03
2022-12-16T03:10:04.442Z,0.02
2022-12-16T03:11:04.911Z,0.04
2022-12-16T03:12:03.721Z,0.03
2022-12-16T03:13:04.205Z,0.03
2022-12-16T03:14:03.738Z,0.03
2022-12-16T03:15:03.613Z,0.02
2022-12-16T03:16:04.223Z,0.03
2022-12-16T03:19:23.248Z,0.02
2022-12-16T03:20:03.719Z,0.02
2022-12-16T03:21:03.793Z,0.03
2022-12-16T03:22:04.619Z,0.02
2022-12-16T03:23:04.335Z,0.03
2022-12-16T03:24:04.608Z,0.02
2022-12-16T03:25:04.201Z,0.03
2022-12-16T03:26:04.303Z,0.03
2022-12-16T03:27:03.519Z,0.03
2022-12-16T03:28:03.682Z,0.04
2022-12-16T03:29:03.417Z,0.02
2022-12-16T03:30:03.623Z,0.03
2022-12-16T03:31:03.946Z,0.04
2022-12-16T03:32:03.541Z,0.03
2022-12-16T03:33:03.679Z,0.03
2022-12-16T03:36:03.669Z,0.03
2022-12-16T03:37:03.770Z,0.03
2022-12-16T03:38:03.967Z,0.03
2022-12-16T03:39:03.916Z,0.03
2022-12-16T03:40:03.710Z,0.03
2022-12-16T03:41:04.207Z,0.03
2022-12-16T03:42:03.795Z,0.03
2022-12-16T03:43:03.890Z,0.03
2022-12-16T03:44:04.147Z,0.03
2022-12-16T03:45:04.068Z,0.03
2022-12-16T03:46:03.635Z,0.04
2022-12-16T03:47:04.135Z,0.03
2022-12-16T03:48:04.243Z,0.03
2022-12-16T03:49:04.388Z,0.04
2022-12-16T03:50:04.534Z,0.03
2022-12-16T03:53:03.365Z,0.02
2022-12-16T03:54:03.756Z,0.04
2022-12-16T03:55:03.529Z,0.03
2022-12-16T03:56:03.294Z,0.03
2022-12-16T03:57:03.221Z,0.03
2022-12-16T03:58:03.323Z,0.03
2022-12-16T03:59:03.027Z,0.03
2022-12-16T04:00:03.127Z,0.03
2022-12-16T04:01:03.523Z,0.03
2022-12-16T04:02:03.867Z,0.03
2022-12-16T04:03:04.271Z,0.03
2022-12-16T04:04:03.990Z,0.02
2022-12-16T04:05:03.462Z,0.02
2022-12-16T04:06:03.824Z,0.02
2022-12-16T04:07:04.066Z,0.03
2022-12-16T04:10:04.027Z,0.03
2022-12-16T04:11:03.846Z,0.04
2022-12-16T04:12:04.111Z,0.03
2022-12-16T04:13:04.244Z,0.03
2022-12-16T04:14:04.192Z,0.02
2022-12-16T04:15:04.236Z,0.03
2022-12-16T04:16:04.202Z,0.04
2022-12-16T04:17:04.302Z,0.03
2022-12-16T04:18:04.327Z,0.03
2022-12-16T04:19:04.185Z,0.03
2022-12-16T04:20:04.398Z,0.03
2022-12-16T04:21:03.968Z,0.03
2022-12-16T04:22:03.383Z,0.03
2022-12-16T04:23:03.085Z,0.04
2022-12-16T04:24:03.444Z,0.03
2022-12-16T04:26:28.788Z,0.04
2022-12-16T04:27:03.842Z,0.03
2022-12-16T04:28:04.156Z,0.04
2022-12-16T04:29:04.117Z,0.03
2022-12-16T04:30:03.914Z,0.02
2022-12-16T04:31:03.887Z,0.03
2022-12-16T04:32:03.575Z,0.04
2022-12-16T04:33:03.528Z,0.02
2022-12-16T04:34:03.401Z,0.03
2022-12-16T04:35:03.295Z,0.03
2022-12-16T04:36:03.177Z,0.03
2022-12-16T04:37:03.928Z,0.03
2022-12-16T04:38:03.703Z,0.02
2022-12-16T04:39:03.918Z,0.03
2022-12-16T04:40:04.043Z,0.03
2022-12-16T04:43:15.877Z,0.03
2022-12-16T04:44:03.314Z,0.03
2022-12-16T04:45:03.160Z,0.03
2022-12-16T04:46:03.520Z,0.03
2022-12-16T04:47:03.384Z,0.02
2022-12-16T04:48:03.267Z,0.03
2022-12-16T04:49:02.998Z,0.03
2022-12-16T04:50:02.864Z,0.03
2022-12-16T04:51:02.997Z,0.03
2022-12-16T04:52:03.809Z,0.03
2022-12-16T04:53:04.010Z,0.03
2022-12-16T04:54:03.397Z,0.03
2022-12-16T04:55:03.831Z,0.03
2022-12-16T04:56:04.882Z,0.03
2022-12-16T04:57:03.190Z,0.03
2022-12-16T05:00:02.667Z,0.04
2022-12-16T05:01:03.243Z,0.02
2022-12-16T05:02:03.869Z,0.02
2022-12-16T05:03:04.040Z,0.03
2022-12-16T05:04:04.118Z,0.03
2022-12-16T05:05:04.129Z,0.02
2022-12-16T05:06:03.740Z,0.03
2022-12-16T05:07:02.900Z,0.03
2022-12-16T05:08:03.340Z,0.04
2022-12-16T05:09:03.472Z,0.03
2022-12-16T05:10:03.387Z,0.03
2022-12-16T05:11:02.804Z,0.03
2022-12-16T05:12:03.932Z,0.03
2022-12-16T05:13:03.790Z,0.03
2022-12-16T05:14:03.992Z,0.04
2022-12-16T05:15:03.563Z,0.03
2022-12-16T05:16:03.924Z,0.03
2022-12-16T05:17:03.825Z,0.02
2022-12-16T05:18:04.212Z,0.03
2022-12-16T05:19:03.620Z,0.03
2022-12-16T05:20:04.040Z,0.02
2022-12-16T05:21:04.109Z,0.03
2022-12-16T05:22:04.336Z,0.03
2022-12-16T05:23:03.684Z,0.02
2022-12-16T05:24:03.888Z,0.02
2022-12-16T05:25:03.997Z,0.03
2022-12-16T05:26:04.069Z,0.03
2022-12-16T05:27:03.205Z,0.02
2022-12-16T05:28:03.281Z,0.03
2022-12-16T05:29:02.913Z,0.04
2022-12-16T05:30:02.747Z,0.03
2022-12-16T05:33:03.460Z,0.03
2022-12-16T05:34:03.313Z,0.03
2022-12-16T05:35:03.291Z,0.02
2022-12-16T05:36:03.635Z,0.03
2022-12-16T05:37:03.811Z,0.02
2022-12-16T05:38:03.333Z,0.03
2022-12-16T05:39:03.224Z,0.03
2022-12-16T05:40:03.650Z,0.03
2022-12-16T05:41:03.178Z,0.03
2022-12-16T05:42:02.948Z,0.03
2022-12-16T05:43:02.713Z,0.03
2022-12-16T05:44:02.712Z,0.03
2022-12-16T05:45:02.693Z,0.04
2022-12-16T05:46:02.631Z,0.03
2022-12-16T05:47:03.298Z,0.02
2022-12-16T05:48:02.869Z,0.03
2022-12-16T05:49:02.786Z,0.02
2022-12-16T05:50:03.111Z,0.02
2022-12-16T05:51:03.048Z,0.03
2022-12-16T05:52:02.362Z,0.03
2022-12-16T05:53:02.937Z,0.03
2022-12-16T05:54:02.408Z,0.03
2022-12-16T05:55:02.647Z,0.03
2022-12-16T05:56:02.599Z,0.03
2022-12-16T05:57:03.091Z,0.04
2022-12-16T05:58:03.091Z,0.03
2022-12-16T05:59:03.229Z,0.03
2022-12-16T06:00:03.392Z,0.02
2022-12-16T06:01:02.838Z,0.02
2022-12-16T06:02:04.443Z,0.03
2022-12-16T06:03:04.490Z,0.03
2022-12-16T06:04:04.017Z,0.03
2022-12-16T06:05:04.238Z,0.03
2022-12-16T06:06:04.041Z,0.02
2022-12-16T06:07:04.619Z,0.03
2022-12-16T06:08:04.252Z,0.03
2022-12-16T06:09:03.726Z,0.03
2022-12-16T06:10:04.141Z,0.03
2022-12-16T06:11:03.704Z,0.03
2022-12-16T06:12:04.514Z,0.03
2022-12-16T06:13:04.108Z,0.03
2022-12-16T06:14:04.245Z,0.03
2022-12-16T06:15:04.497Z,0.02
2022-12-16T06:16:08.683Z,0.03
2022-12-16T06:17:04.570Z,0.04
2022-12-16T06:18:04.086Z,0.02
2022-12-16T06:19:04.095Z,0.03
2022-12-16T06:20:03.921Z,0.03
2022-12-16T06:21:04.110Z,0.03
2022-12-16T06:22:03.529Z,0.03
2022-12-16T06:23:03.962Z,0.02
2022-12-16T06:24:03.716Z,0.03
2022-12-16T06:25:03.838Z,0.02
2022-12-16T06:26:03.739Z,0.02
2022-12-16T06:27:03.497Z,0.04
2022-12-16T06:28:03.830Z,0.04
2022-12-16T06:29:04.015Z,0.03
2022-12-16T06:30:04.018Z,0.03
2022-12-16T06:31:03.601Z,0.03
2022-12-16T06:32:03.671Z,0.03
2022-12-16T06:33:03.920Z,0.03
2022-12-16T06:34:03.591Z,0.03
2022-12-16T06:35:03.616Z,0.04
2022-12-16T06:36:04.108Z,0.02
2022-12-16T06:37:03.677Z,0.03
2022-12-16T06:38:03.642Z,0.03
2022-12-16T06:39:03.602Z,0.03
2022-12-16T06:40:03.534Z,0.02
2022-12-16T06:41:03.706Z,0.02
2022-12-16T06:42:03.714Z,0.03
2022-12-16T06:43:03.802Z,0.03
2022-12-16T06:44:04.183Z,0.03
2022-12-16T06:45:04.227Z,0.03
2022-12-16T06:46:04.300Z,0.03
2022-12-16T06:47:03.898Z,0.02
2022-12-16T06:48:03.630Z,0.03
2022-12-16T06:49:03.585Z,0.03
2022-12-16T06:50:03.766Z,0.03
2022-12-16T06:51:03.873Z,0.03
2022-12-16T06:52:04.038Z,0.03
2022-12-16T06:53:04.422Z,0.03
2022-12-16T06:54:03.860Z,0.02
2022-12-16T06:55:03.862Z,0.03
2022-12-16T06:56:04.249Z,0.03
2022-12-16T06:57:03.470Z,0.03
2022-12-16T06:58:08.150Z,0.03
2022-12-16T06:59:03.036Z,0.03
2022-12-16T07:00:03.002Z,0.03
2022-12-16T07:01:03.245Z,0.03
2022-12-16T07:02:04.024Z,0.03
2022-12-16T07:03:04.742Z,0.03
2022-12-16T07:04:03.933Z,0.02
2022-12-16T07:05:04.184Z,0.03
2022-12-16T07:06:03.713Z,0.03
2022-12-16T07:07:03.755Z,0.03
2022-12-16T07:08:04.084Z,0.04
2022-12-16T07:09:03.841Z,0.03
2022-12-16T07:10:03.693Z,0.03
2022-12-16T07:11:15.966Z,0.03
2022-12-16T07:12:04.425Z,0.04
2022-12-16T07:13:04.037Z,0.04
2022-12-16T07:14:04.177Z,0.03
2022-12-16T07:15:04.180Z,0.04
2022-12-16T07:16:04.059Z,0.03
2022-12-16T07:17:03.997Z,0.03
2022-12-16T07:18:04.239Z,0.04
2022-12-16T07:19:04.234Z,0.04
2022-12-16T07:20:03.945Z,0.03
2022-12-16T07:21:04.053Z,0.04
2022-12-16T07:22:03.188Z,0.03
2022-12-16T07:23:11.012Z,0.04
2022-12-16T07:24:03.105Z,0.04
2022-12-16T07:25:03.475Z,0.04
2022-12-16T07:26:02.973Z,0.04
2022-12-16T07:27:03.347Z,0.04
2022-12-16T07:28:03.094Z,0.04
2022-12-16T07:29:03.682Z,0.05
2022-12-16T07:30:03.641Z,0.04
2022-12-16T07:31:03.084Z,0.05
2022-12-16T07:32:03.752Z,0.05
2022-12-16T07:33:03.593Z,0.05
2022-12-16T07:34:03.293Z,0.05
2022-12-16T07:35:03.559Z,0.05
2022-12-16T07:36:03.471Z,0.05
2022-12-16T07:37:03.832Z,0.06
2022-12-16T07:38:03.483Z,0.05
2022-12-16T07:39:03.645Z,0.05
2022-12-16T07:40:03.683Z,0.07
2022-12-16T07:41:03.519Z,0.07
2022-12-16T07:42:03.640Z,0.07
2022-12-16T07:43:04.084Z,0.07
2022-12-16T07:44:03.900Z,0.07
2022-12-16T07:45:03.983Z,0.08
2022-12-16T07:46:03.692Z,0.06
2022-12-16T07:47:03.172Z,0.08
2022-12-16T07:48:02.841Z,0.08
2022-12-16T07:49:02.870Z,0.09
2022-12-16T07:50:03.176Z,0.08
2022-12-16T07:51:03.346Z,0.08
2022-12-16T07:52:03.497Z,0.09
2022-12-16T07:53:03.502Z,0.10
2022-12-16T07:54:03.812Z,0.09
2022-12-16T07:55:03.341Z,0.10
2022-12-16T07:56:03.276Z,0.10
2022-12-16T07:57:02.987Z,0.10
2022-12-16T07:58:02.814Z,0.10
2022-12-16T07:59:03.018Z,0.10
2022-12-16T08:00:03.096Z,0.10
2022-12-16T08:01:08.981Z,0.11
2022-12-16T08:02:04.086Z,0.11
2022-12-16T08:03:04.611Z,0.12
2022-12-16T08:04:04.077Z,0.13
2022-12-16T08:05:04.083Z,0.12
2022-12-16T08:06:04.456Z,0.12
2022-12-16T08:07:04.081Z,0.14
2022-12-16T08:08:03.547Z,0.12
2022-12-16T08:09:03.387Z,0.12
2022-12-16T08:10:03.890Z,0.13
2022-12-16T08:11:03.430Z,0.14
2022-12-16T08:12:04.089Z,0.15
2022-12-16T08:13:04.360Z,0.13
2022-12-16T08:14:04.287Z,0.14
2022-12-16T08:15:04.105Z,0.13
2022-12-16T08:16:04.287Z,0.13
2022-12-16T08:17:04.614Z,0.13
2022-12-16T08:18:04.369Z,0.15
2022-12-16T08:19:10.499Z,0.16
2022-12-16T08:20:04.306Z,0.16
2022-12-16T08:21:04.272Z,0.19
2022-12-16T08:22:03.627Z,0.18
2022-12-16T08:23:03.275Z,0.19
2022-12-16T08:24:03.714Z,0.18
2022-12-16T08:25:03.713Z,0.18
2022-12-16T08:26:03.225Z,0.18
2022-12-16T08:27:03.686Z,0.18
2022-12-16T08:28:03.306Z,0.18
2022-12-16T08:29:34.712Z,0.18
2022-12-16T08:30:03.382Z,0.17
2022-12-16T08:31:03.389Z,0.19
2022-12-16T08:32:04.365Z,0.18
2022-12-16T08:33:14.996Z,0.19
2022-12-16T08:34:04.214Z,0.19
2022-12-16T08:35:04.012Z,0.19
2022-12-16T08:36:04.260Z,0.20
2022-12-16T08:37:04.047Z,0.19
2022-12-16T08:38:07.636Z,0.20
2022-12-16T08:39:03.827Z,0.20
2022-12-16T08:40:34.740Z,0.21
2022-12-16T08:41:04.051Z,0.22
2022-12-16T08:42:03.272Z,0.21
2022-12-16T08:43:07.872Z,0.21
2022-12-16T08:44:02.927Z,0.21
2022-12-16T08:45:02.957Z,0.23
2022-12-16T08:46:03.387Z,0.23
2022-12-16T08:47:03.535Z,0.23
2022-12-16T08:48:03.407Z,0.25
2022-12-16T08:49:03.785Z,0.25
2022-12-16T08:50:03.730Z,0.26
2022-12-16T08:51:03.416Z,0.25
2022-12-16T08:52:03.129Z,0.26
2022-12-16T08:53:02.782Z,0.26
2022-12-16T08:54:02.654Z,0.27
2022-12-16T08:55:03.262Z,0.26
2022-12-16T08:56:02.723Z,0.27
2022-12-16T08:57:03.251Z,0.27
2022-12-16T08:58:03.218Z,0.28
2022-12-16T08:59:03.588Z,0.28
2022-12-16T09:00:03.432Z,0.28
2022-12-16T09:01:07.411Z,0.28
2022-12-16T09:02:04.338Z,0.30
2022-12-16T09:03:04.689Z,0.28
2022-12-16T09:04:04.332Z,0.28
2022-12-16T09:05:04.036Z,0.27
2022-12-16T09:06:04.035Z,0.28
2022-12-16T09:07:04.574Z,0.28
2022-12-16T09:08:04.834Z,0.28
2022-12-16T09:09:04.534Z,0.29
2022-12-16T09:10:04.676Z,0.28
2022-12-16T09:11:04.696Z,0.30
2022-12-16T09:12:03.940Z,0.30
2022-12-16T09:13:03.943Z,0.28
2022-12-16T09:14:03.473Z,0.32
2022-12-16T09:15:03.563Z,0.31
2022-12-16T09:16:03.874Z,0.31
2022-12-16T09:17:04.340Z,0.32
2022-12-16T09:18:04.165Z,0.31
2022-12-16T09:19:04.192Z,0.31
2022-12-16T09:20:03.891Z,0.32
2022-12-16T09:21:04.047Z,0.33
2022-12-16T09:22:04.587Z,0.33
2022-12-16T09:23:04.506Z,0.33
2022-12-16T09:24:04.416Z,0.34
2022-12-16T09:25:04.695Z,0.35
2022-12-16T09:26:04.726Z,0.35
2022-12-16T09:27:04.587Z,0.34
2022-12-16T09:28:04.344Z,0.35
2022-12-16T09:29:04.713Z,0.35
2022-12-16T09:30:04.633Z,0.35
2022-12-16T09:31:04.560Z,0.36
2022-12-16T09:32:03.999Z,0.36
2022-12-16T09:33:04.113Z,0.38
2022-12-16T09:34:03.706Z,0.38
2022-12-16T09:35:06.259Z,0.36
2022-12-16T09:36:03.783Z,0.38
2022-12-16T09:37:04.283Z,0.38
2022-12-16T09:38:04.166Z,0.39
2022-12-16T09:39:03.738Z,0.39
2022-12-16T09:40:03.955Z,0.40
2022-12-16T09:41:03.720Z,0.40
2022-12-16T09:42:03.930Z,0.39
2022-12-16T09:43:03.424Z,0.39
2022-12-16T09:44:04.001Z,0.39
2022-12-16T09:45:03.400Z,0.42
2022-12-16T09:46:03.511Z,0.49
2022-12-16T09:47:08.334Z,0.58
2022-12-16T09:48:03.983Z,0.69
2022-12-16T09:49:03.636Z,0.77
2022-12-16T09:50:03.839Z,0.75
2022-12-16T09:51:03.686Z,0.56
2022-12-16T09:52:03.582Z,0.46
2022-12-16T09:53:03.241Z,0.68
2022-12-16T09:54:03.066Z,0.91
2022-12-16T09:55:03.155Z,0.96
2022-12-16T09:56:03.226Z,0.98
2022-12-16T09:57:03.778Z,0.99
2022-12-16T09:58:03.337Z,1.00
2022-12-16T09:59:03.489Z,1.02
2022-12-16T10:00:03.289Z,1.07
2022-12-16T10:01:03.483Z,1.13
2022-12-16T10:02:04.850Z,1.16
2022-12-16T10:03:07.011Z,1.20
2022-12-16T10:04:04.501Z,1.23
2022-12-16T10:05:04.526Z,1.25
2022-12-16T10:06:04.437Z,1.27
2022-12-16T10:07:04.295Z,1.25
2022-12-16T10:08:04.143Z,1.24
2022-12-16T10:09:04.322Z,1.27
2022-12-16T10:10:04.153Z,1.29
2022-12-16T10:11:03.784Z,1.28
2022-12-16T10:12:04.575Z,1.26
2022-12-16T10:13:03.933Z,1.26
2022-12-16T10:14:04.121Z,1.28
2022-12-16T10:15:04.400Z,1.30
2022-12-16T10:16:04.599Z,1.30
2022-12-16T10:17:04.858Z,1.32
2022-12-16T10:18:04.382Z,1.35
2022-12-16T10:19:04.457Z,1.38
2022-12-16T10:20:09.142Z,1.37
2022-12-16T10:21:04.811Z,1.39
2022-12-16T10:22:03.628Z,1.41
2022-12-16T10:23:04.010Z,1.46
2022-12-16T10:24:03.710Z,1.47
2022-12-16T10:25:03.622Z,1.51
2022-12-16T10:26:04.026Z,1.55
2022-12-16T10:27:03.632Z,1.57
2022-12-16T10:28:03.664Z,1.50
2022-12-16T10:29:04.038Z,1.48
2022-12-16T10:30:03.655Z,1.50
2022-12-16T10:31:04.082Z,1.51
2022-12-16T10:32:04.192Z,1.53
2022-12-16T10:33:03.827Z,1.55
2022-12-16T10:34:03.710Z,1.56
2022-12-16T10:35:03.805Z,1.55
2022-12-16T10:36:03.470Z,1.61
2022-12-16T10:37:08.853Z,1.65
2022-12-16T10:38:03.426Z,1.68
2022-12-16T10:39:03.750Z,1.63
2022-12-16T10:40:03.561Z,1.66
2022-12-16T10:41:03.714Z,1.69
2022-12-16T10:42:03.897Z,1.70
2022-12-16T10:43:03.253Z,1.71
2022-12-16T10:44:03.597Z,1.71
2022-12-16T10:45:03.266Z,1.70
2022-12-16T10:46:03.712Z,1.72
2022-12-16T10:47:03.646Z,1.77
2022-12-16T10:48:04.224Z,1.80
2022-12-16T10:49:03.857Z,1.81
2022-12-16T10:50:03.836Z,1.82
2022-12-16T10:51:03.952Z,1.82
2022-12-16T10:52:08.917Z,1.82
2022-12-16T10:53:04.439Z,1.87
2022-12-16T10:54:04.070Z,1.86
2022-12-16T10:55:04.159Z,1.88
2022-12-16T10:56:04.348Z,1.88
2022-12-16T10:57:04.272Z,1.83
2022-12-16T10:58:03.800Z,1.83
2022-12-16T10:59:03.265Z,1.83
2022-12-16T11:00:03.228Z,1.82
2022-12-16T11:01:03.466Z,1.83
2022-12-16T11:02:03.221Z,1.87
2022-12-16T11:03:04.151Z,1.88
2022-12-16T11:04:03.910Z,1.83
2022-12-16T11:05:04.193Z,1.82
2022-12-16T11:06:03.504Z,1.85
2022-12-16T11:07:03.576Z,1.85
2022-12-16T11:08:03.858Z,1.85
2022-12-16T11:09:03.906Z,1.88
2022-12-16T11:10:03.668Z,1.89
2022-12-16T11:11:03.629Z,1.87
2022-12-16T11:12:03.628Z,1.86
2022-12-16T11:13:03.939Z,1.84
2022-12-16T11:14:03.699Z,1.87
2022-12-16T11:15:28.142Z,1.90
2022-12-16T11:16:03.911Z,1.95
2022-12-16T11:17:04.259Z,1.95
2022-12-16T11:18:04.283Z,1.92
2022-12-16T11:19:04.155Z,1.90
2022-12-16T11:20:04.242Z,1.89
2022-12-16T11:21:09.788Z,1.89
2022-12-16T11:22:04.299Z,1.88
2022-12-16T11:23:04.586Z,1.88
2022-12-16T11:24:04.176Z,1.88
2022-12-16T11:25:04.612Z,1.87
2022-12-16T11:26:04.123Z,1.89
2022-12-16T11:27:04.637Z,1.86
2022-12-16T11:28:03.636Z,1.88
2022-12-16T11:29:03.834Z,1.88
2022-12-16T11:30:03.966Z,1.88
2022-12-16T11:31:03.639Z,1.92
2022-12-16T11:32:03.900Z,1.93
2022-12-16T11:33:04.159Z,1.97
2022-12-16T11:34:03.924Z,2.03
2022-12-16T11:35:03.947Z,2.03
2022-12-16T11:36:04.148Z,2.07
2022-12-16T11:37:04.171Z,2.09
2022-12-16T11:38:03.555Z,2.15
2022-12-16T11:39:03.670Z,2.18
2022-12-16T11:40:03.569Z,2.14
2022-12-16T11:41:03.075Z,2.12
2022-12-16T11:42:03.262Z,2.08
2022-12-16T11:43:10.511Z,2.08
2022-12-16T11:44:04.164Z,2.08
2022-12-16T11:45:03.993Z,2.11
2022-12-16T11:46:03.678Z,2.06
2022-12-16T11:47:04.327Z,2.05
2022-12-16T11:48:03.510Z,2.05
2022-12-16T11:49:03.280Z,2.04
2022-12-16T11:50:03.454Z,2.02
2022-12-16T11:51:03.037Z,2.03
2022-12-16T11:52:21.170Z,2.03
2022-12-16T11:53:04.033Z,2.00
2022-12-16T11:54:04.157Z,1.98
2022-12-16T11:55:04.033Z,2.01
2022-12-16T11:56:07.612Z,2.00
2022-12-16T11:57:03.885Z,2.02
2022-12-16T11:58:03.696Z,1.99
2022-12-16T11:59:03.372Z,2.00
2022-12-16T12:00:03.441Z,2.00
2022-12-16T12:01:03.743Z,1.92
2022-12-16T12:02:03.580Z,1.89
2022-12-16T12:03:04.506Z,1.91
2022-12-16T12:04:04.571Z,1.95
2022-12-16T12:05:04.476Z,1.96
2022-12-16T12:06:04.613Z,1.93
2022-12-16T12:07:04.401Z,1.96
2022-12-16T12:08:04.130Z,1.96
2022-12-16T12:09:04.361Z,1.93
2022-12-16T12:10:03.752Z,1.92
2022-12-16T12:11:04.156Z,1.90
2022-12-16T12:12:04.321Z,1.87
2022-12-16T12:13:03.951Z,1.85
2022-12-16T12:14:03.910Z,1.87
2022-12-16T12:15:03.872Z,1.87
2022-12-16T12:16:04.108Z,1.87
2022-12-16T12:17:03.958Z,1.89
2022-12-16T12:18:04.285Z,1.93
2022-12-16T12:19:04.274Z,1.98
2022-12-16T12:20:04.475Z,2.06
2022-12-16T12:21:04.053Z,2.20
2022-12-16T12:22:04.437Z,2.30
2022-12-16T12:23:04.217Z,2.32
2022-12-16T12:24:04.652Z,2.28
2022-12-16T12:25:04.179Z,2.08
2022-12-16T12:26:04.553Z,1.86
2022-12-16T12:27:04.625Z,1.78
2022-12-16T12:28:04.472Z,1.74
2022-12-16T12:29:04.323Z,1.71
2022-12-16T12:30:04.189Z,1.68
2022-12-16T12:31:04.502Z,1.66
2022-12-16T12:32:04.496Z,1.66
2022-12-16T12:33:04.213Z,1.65
2022-12-16T12:34:03.998Z,1.62
2022-12-16T12:35:04.194Z,1.63
2022-12-16T12:36:03.587Z,1.63
2022-12-16T12:37:03.724Z,1.65
2022-12-16T12:38:04.060Z,1.65
2022-12-16T12:39:04.549Z,1.68
2022-12-16T12:40:04.170Z,1.70
2022-12-16T12:41:04.342Z,1.71
2022-12-16T12:42:03.950Z,1.70
2022-12-16T12:43:03.735Z,1.69
2022-12-16T12:44:03.599Z,1.65
2022-12-16T12:45:03.767Z,1.66
2022-12-16T12:46:03.964Z,1.65
2022-12-16T12:47:04.358Z,1.61
2022-12-16T12:48:04.535Z,1.60
2022-12-16T12:49:04.356Z,1.59
2022-12-16T12:50:04.448Z,1.57
2022-12-16T12:51:04.530Z,1.59
2022-12-16T12:52:04.564Z,1.59
2022-12-16T12:53:04.047Z,1.58
2022-12-16T12:54:04.217Z,1.58
2022-12-16T12:55:03.657Z,1.58
2022-12-16T12:56:04.017Z,1.58
2022-12-16T12:57:03.675Z,1.56
2022-12-16T12:58:04.048Z,1.55
2022-12-16T12:59:03.945Z,1.53
2022-12-16T13:00:04.373Z,1.52
2022-12-16T13:01:04.310Z,1.51
2022-12-16T13:02:04.416Z,1.51
2022-12-16T13:03:05.304Z,1.51
2022-12-16T13:04:04.690Z,1.51
2022-12-16T13:05:04.690Z,1.50
2022-12-16T13:06:04.620Z,1.50
2022-12-16T13:07:04.715Z,1.47
2022-12-16T13:08:04.053Z,1.46
2022-12-16T13:09:04.140Z,1.45
2022-12-16T13:10:04.202Z,1.45
2022-12-16T13:11:04.475Z,1.45
2022-12-16T13:12:03.718Z,1.43
2022-12-16T13:13:04.676Z,1.43
2022-12-16T13:14:04.417Z,1.41
2022-12-16T13:15:04.723Z,1.39
2022-12-16T13:16:04.544Z,1.41
2022-12-16T13:17:04.288Z,1.43
2022-12-16T13:18:04.650Z,1.37
2022-12-16T13:19:08.070Z,1.32
2022-12-16T13:20:04.573Z,1.30
2022-12-16T13:21:04.321Z,1.32
2022-12-16T13:22:04.927Z,1.30
2022-12-16T13:23:04.022Z,1.27
2022-12-16T13:24:04.459Z,1.28
2022-12-16T13:25:04.382Z,1.28
2022-12-16T13:26:04.464Z,1.26
2022-12-16T13:27:04.611Z,1.24
2022-12-16T13:28:04.967Z,1.22
2022-12-16T13:29:04.444Z,1.23
2022-12-16T13:30:04.909Z,1.21
2022-12-16T13:31:04.869Z,1.16
2022-12-16T13:32:04.574Z,1.14
2022-12-16T13:33:03.829Z,1.15
2022-12-16T13:34:03.769Z,1.15
2022-12-16T13:35:03.992Z,1.12
2022-12-16T13:36:04.236Z,1.10
2022-12-16T13:37:04.101Z,1.11
2022-12-16T13:38:04.477Z,1.10
2022-12-16T13:39:04.700Z,1.09
2022-12-16T13:40:04.297Z,1.11
2022-12-16T13:41:04.233Z,1.10
2022-12-16T13:42:04.441Z,1.08
2022-12-16T13:43:03.501Z,1.07
2022-12-16T13:44:03.905Z,1.06